Time;durP1;ratioP1;P1;durP2;ratioP2;P2;SDS_P1;SDS_P2;PMS_P1;PMS_P2;Temp;Humidity;BMP_temperature;BMP_pressure;BME280_temperature;BME280_humidity;BME280_pressure;Samples;Min_cycle;Max_cycle;Signal;HPM_P1;HPM_P2
2023/02/12 00:00:43;;;;;;;17.80;9.50;;;7.50;99.90;;;;;;5103810;28;20332;-78
2023/02/12 00:03:10;;;;;;;19.40;7.33;;;7.00;99.90;;;;;;5104762;28;20267;-78
2023/02/12 00:05:38;;;;;;;13.27;8.10;;;7.10;99.90;;;;;;5105149;28;20428;-78
2023/02/12 00:08:06;;;;;;;13.38;6.78;;;7.50;99.90;;;;;;5104306;28;20439;-79
2023/02/12 00:10:32;;;;;;;12.65;7.65;;;7.10;99.90;;;;;;5104177;28;20320;-79
2023/02/12 00:12:59;;;;;;;16.97;8.53;;;7.20;99.90;;;;;;5104617;28;20215;-78
2023/02/12 00:15:27;;;;;;;19.33;8.97;;;7.30;99.90;;;;;;5103771;28;20447;-78
2023/02/12 00:17:54;;;;;;;19.48;8.43;;;7.50;99.90;;;;;;5104033;28;20542;-78
2023/02/12 00:20:21;;;;;;;18.07;7.60;;;7.70;99.90;;;;;;5103539;28;20802;-78
2023/02/12 00:22:48;;;;;;;17.33;8.50;;;7.30;99.90;;;;;;5104202;28;20539;-78
2023/02/12 00:25:15;;;;;;;14.65;8.25;;;;;;;;;;5103467;28;20432;-78
2023/02/12 00:27:42;;;;;;;18.95;8.98;;;7.50;99.90;;;;;;5101292;28;20202;-79
2023/02/12 00:30:10;;;;;;;13.77;7.07;;;7.30;99.90;;;;;;5099397;28;20224;-78
2023/02/12 00:32:38;;;;;;;11.70;6.80;;;7.40;99.90;;;;;;5098571;28;20473;-78
2023/02/12 00:35:05;;;;;;;16.67;6.30;;;7.50;99.90;;;;;;5098479;28;20443;-80
2023/02/12 00:37:32;;;;;;;16.70;7.17;;;7.00;99.90;;;;;;5098821;28;20447;-79
2023/02/12 00:39:58;;;;;;;12.67;7.03;;;7.20;99.90;;;;;;5098407;28;20442;-78
2023/02/12 00:42:26;;;;;;;14.35;7.68;;;;;;;;;;5098838;28;20424;-80
2023/02/12 00:44:52;;;;;;;15.90;9.03;;;7.70;99.90;;;;;;5103449;28;20681;-79
2023/02/12 00:47:19;;;;;;;16.37;6.73;;;7.00;99.90;;;;;;5108826;28;20418;-78
2023/02/12 00:49:47;;;;;;;15.25;6.70;;;7.30;99.90;;;;;;5106130;28;20559;-78
2023/02/12 00:52:14;;;;;;;13.85;7.45;;;7.10;99.90;;;;;;5097306;28;20224;-79
2023/02/12 00:54:41;;;;;;;13.20;7.65;;;6.90;99.90;;;;;;5097670;28;20579;-79
2023/02/12 00:57:08;;;;;;;18.13;7.05;;;7.30;99.90;;;;;;5097964;28;20235;-78
2023/02/12 00:59:38;;;;;;;11.07;6.85;;;7.40;99.90;;;;;;5097596;28;20309;-78
2023/02/12 01:02:04;;;;;;;13.90;6.17;;;7.40;99.90;;;;;;5098315;28;20269;-78
2023/02/12 01:04:31;;;;;;;15.57;6.85;;;;;;;;;;5098151;28;20478;-78
2023/02/12 01:07:00;;;;;;;13.32;6.53;;;7.60;99.90;;;;;;5103281;28;20289;-78
2023/02/12 01:09:26;;;;;;;22.02;8.52;;;7.30;99.90;;;;;;5101337;28;20261;-79
2023/02/12 01:11:53;;;;;;;16.43;7.80;;;7.30;99.90;;;;;;5101916;28;20309;-78
2023/02/12 01:14:20;;;;;;;16.75;7.70;;;6.80;99.90;;;;;;5102818;28;20451;-79
2023/02/12 01:16:47;;;;;;;14.02;6.63;;;7.00;99.90;;;;;;5102300;28;20309;-78
2023/02/12 01:19:14;;;;;;;14.32;7.47;;;7.30;99.90;;;;;;5102052;28;20328;-79
2023/02/12 01:21:40;;;;;;;20.02;7.53;;;7.50;99.90;;;;;;5101213;28;20212;-78
2023/02/12 01:24:09;;;;;;;11.93;6.73;;;7.30;99.90;;;;;;5099285;28;20364;-78
2023/02/12 01:26:36;;;;;;;19.23;6.90;;;7.10;99.90;;;;;;5097246;28;20445;-78
2023/02/12 01:29:06;;;;;;;13.40;7.13;;;7.00;99.90;;;;;;5096103;28;20229;-77
2023/02/12 01:31:37;;;;;;;11.27;7.07;;;7.00;99.90;;;;;;5098128;28;20234;-79
2023/02/12 01:34:05;;;;;;;23.53;8.50;;;7.20;99.90;;;;;;5097651;28;20399;-78
2023/02/12 01:36:32;;;;;;;13.98;6.30;;;7.00;99.90;;;;;;5096828;28;20429;-80
2023/02/12 01:39:01;;;;;;;23.03;7.60;;;;;;;;;;5095883;28;20320;-78
2023/02/12 01:41:31;;;;;;;10.00;5.97;;;7.30;99.90;;;;;;5095471;28;20422;-78
2023/02/12 01:44:11;;;;;;;13.95;6.45;;;7.00;99.90;;;;;;5095280;28;20413;-79
2023/02/12 01:46:38;;;;;;;14.50;6.37;;;7.30;99.90;;;;;;5095262;28;20196;-79
2023/02/12 01:49:08;;;;;;;12.67;6.20;;;4.60;99.90;;;;;;5096515;28;20533;-78
2023/02/12 01:51:36;;;;;;;15.33;6.20;;;6.90;99.90;;;;;;5095770;28;20562;-79
2023/02/12 01:54:06;;;;;;;10.67;6.13;;;7.40;99.90;;;;;;5093784;28;20951;-78
2023/02/12 01:56:35;;;;;;;14.63;6.38;;;7.20;99.90;;;;;;5095021;28;20445;-78
2023/02/12 01:59:02;;;;;;;11.18;5.95;;;6.80;99.90;;;;;;5095902;28;20226;-78
2023/02/12 02:01:30;;;;;;;11.15;5.45;;;7.20;99.90;;;;;;5102791;28;20198;-78
2023/02/12 02:04:01;;;;;;;15.20;5.88;;;7.20;99.90;;;;;;5102833;28;20213;-78
2023/02/12 02:06:31;;;;;;;15.60;6.07;;;7.40;99.90;;;;;;5101585;28;20571;-78
2023/02/12 02:08:58;;;;;;;18.23;7.07;;;6.70;99.90;;;;;;5101786;28;20565;-78
2023/02/12 02:17:00;;;;;;;16.80;6.20;;;7.10;99.90;;;;;;5099243;28;20379;-79
2023/02/12 02:19:42;;;;;;;16.35;5.45;;;7.30;99.90;;;;;;5098111;28;20462;-78
2023/02/12 02:22:22;;;;;;;9.50;5.07;;;7.50;99.90;;;;;;5101968;28;20546;-78
2023/02/12 02:25:14;;;;;;;17.23;6.72;;;7.20;99.90;;;;;;5102477;28;20845;-78
2023/02/12 02:27:57;;;;;;;13.30;5.77;;;6.70;99.90;;;;;;5087949;28;20584;-78
2023/02/12 02:30:46;;;;;;;15.27;6.47;;;7.10;99.90;;;;;;5096283;28;20821;-78
2023/02/12 02:33:34;;;;;;;20.63;6.60;;;7.00;99.90;;;;;;5095917;28;20442;-78
2023/02/12 02:36:14;;;;;;;16.50;6.03;;;7.30;99.90;;;;;;5095454;28;20443;-78
2023/02/12 02:38:43;;;;;;;14.07;4.85;;;7.10;99.90;;;;;;5095327;28;20522;-78
2023/02/12 02:41:17;;;;;;;17.60;4.93;;;7.40;99.90;;;;;;5111457;22;20222;-85
2023/02/12 02:43:49;;;;;;;9.95;5.78;;;7.30;99.90;;;;;;5088606;28;20205;-86
2023/02/12 02:46:22;;;;;;;17.23;6.63;;;7.00;99.90;;;;;;5087157;28;20277;-87
2023/02/12 02:48:53;;;;;;;16.02;5.95;;;7.20;99.90;;;;;;5086120;28;20203;-85
2023/02/12 02:51:24;;;;;;;14.98;6.45;;;7.10;99.90;;;;;;5084751;28;20287;-86
2023/02/12 02:53:56;;;;;;;10.75;5.65;;;7.30;99.90;;;;;;5087792;28;20187;-86
2023/02/12 02:56:26;;;;;;;11.40;5.30;;;7.30;99.90;;;;;;5091184;28;20186;-86
2023/02/12 02:58:56;;;;;;;15.10;4.93;;;6.80;99.90;;;;;;5094131;28;20291;-86
2023/02/12 03:01:30;;;;;;;15.27;6.60;;;7.10;99.90;;;;;;5093189;28;20705;-86
2023/02/12 03:04:02;;;;;;;14.83;5.00;;;7.10;99.90;;;;;;5091043;28;20275;-86
2023/02/12 03:06:37;;;;;;;15.70;5.40;;;6.90;99.90;;;;;;5089206;28;20429;-86
2023/02/12 03:09:12;;;;;;;18.33;5.70;;;7.30;99.90;;;;;;5087763;28;20400;-86
2023/02/12 03:11:39;;;;;;;11.85;5.22;;;7.30;99.90;;;;;;5093734;28;20252;-85
2023/02/12 03:14:11;;;;;;;22.95;6.38;;;7.00;99.90;;;;;;5093873;28;20269;-86
2023/02/12 03:16:44;;;;;;;16.95;5.10;;;6.80;99.90;;;;;;5087523;28;20608;-86
2023/02/12 03:19:16;;;;;;;21.38;5.53;;;7.10;99.90;;;;;;5087530;28;20222;-86
2023/02/12 03:21:47;;;;;;;17.05;5.55;;;7.20;99.90;;;;;;5086377;28;20617;-86
2023/02/12 03:24:21;;;;;;;10.55;4.88;;;6.90;99.90;;;;;;5086136;28;20187;-86
2023/02/12 03:26:54;;;;;;;15.67;6.23;;;6.70;99.90;;;;;;5085906;28;20568;-86
2023/02/12 03:29:21;;;;;;;18.70;6.00;;;;;;;;;;5086230;28;20437;-85
2023/02/12 03:32:06;;;;;;;11.45;5.38;;;7.30;99.90;;;;;;5086751;28;20279;-85
2023/02/12 03:34:42;;;;;;;12.75;6.35;;;5.70;99.90;;;;;;5086454;28;20229;-85
2023/02/12 03:37:14;;;;;;;19.45;6.10;;;7.00;99.90;;;;;;5080581;28;20575;-85
2023/02/12 03:39:52;;;;;;;14.40;5.78;;;7.30;99.90;;;;;;5081057;28;20230;-86
2023/02/12 03:42:28;;;;;;;14.15;5.60;;;6.90;99.90;;;;;;5082275;28;20288;-86
2023/02/12 03:44:59;;;;;;;9.88;6.07;;;7.00;99.90;;;;;;5083018;28;20186;-84
2023/02/12 03:47:38;;;;;;;16.98;7.10;;;7.40;99.90;;;;;;5083422;28;20187;-84
2023/02/12 03:50:13;;;;;;;14.75;6.55;;;7.20;99.90;;;;;;5083692;28;20249;-85
2023/02/12 03:52:41;;;;;;;19.35;7.15;;;7.10;99.90;;;;;;5085063;28;20364;-86
2023/02/12 03:55:08;;;;;;;14.82;6.18;;;7.20;99.90;;;;;;5084541;28;20241;-85
2023/02/12 03:57:40;;;;;;;17.40;6.82;;;6.90;99.90;;;;;;5084398;28;20202;-85
2023/02/12 04:00:10;;;;;;;15.07;6.28;;;7.20;99.90;;;;;;5095156;28;20313;-85
2023/02/12 04:02:38;;;;;;;16.58;7.10;;;6.90;98.50;;;;;;5097084;28;20202;-85
2023/02/12 04:05:06;;;;;;;17.67;7.45;;;7.20;99.90;;;;;;5088176;28;20254;-86
2023/02/12 04:07:33;;;;;;;22.02;7.63;;;;;;;;;;5086178;28;20203;-85
2023/02/12 04:10:00;;;;;;;17.50;6.93;;;6.50;99.90;;;;;;5086603;28;20225;-86
2023/02/12 04:12:37;;;;;;;15.13;6.00;;;6.70;99.90;;;;;;5085373;28;20227;-85
2023/02/12 04:15:16;;;;;;;19.55;6.90;;;7.10;99.90;;;;;;5087139;28;20187;-84
2023/02/12 04:17:58;;;;;;;13.52;6.15;;;6.70;99.90;;;;;;5088687;28;20218;-85
2023/02/12 04:20:31;;;;;;;19.23;6.93;;;7.40;99.90;;;;;;5091578;28;20274;-85
2023/02/12 04:23:12;;;;;;;22.15;9.88;;;6.60;99.90;;;;;;5091065;28;20557;-86
2023/02/12 04:25:50;;;;;;;14.43;6.35;;;6.60;99.90;;;;;;5090204;28;20187;-86
2023/02/12 04:28:28;;;;;;;13.48;6.28;;;6.30;99.90;;;;;;5088838;28;20279;-87
2023/02/12 04:30:59;;;;;;;16.13;6.22;;;6.30;99.90;;;;;;5088211;28;20221;-86
2023/02/12 04:33:33;;;;;;;15.98;5.85;;;5.80;99.90;;;;;;5088583;28;20203;-86
2023/02/12 04:36:06;;;;;;;14.43;5.53;;;6.70;99.90;;;;;;5089556;28;20254;-86
2023/02/12 04:38:38;;;;;;;12.35;6.35;;;6.50;99.90;;;;;;5094494;28;20186;-86
2023/02/12 04:41:06;;;;;;;17.98;6.35;;;6.20;99.90;;;;;;5098381;28;20253;-84
2023/02/12 04:43:36;;;;;;;24.70;6.63;;;6.60;99.90;;;;;;5097698;28;20286;-86
2023/02/12 04:46:05;;;;;;;19.95;7.22;;;6.60;99.90;;;;;;5091381;28;20210;-86
2023/02/12 04:48:33;;;;;;;12.68;5.97;;;6.50;99.90;;;;;;5089307;28;20230;-85
2023/02/12 04:51:01;;;;;;;16.15;7.45;;;6.50;99.90;;;;;;5088969;28;20237;-86
2023/02/12 04:53:28;;;;;;;20.05;7.32;;;7.10;99.90;;;;;;5088846;28;20223;-85
2023/02/12 04:55:54;;;;;;;13.23;6.05;;;6.60;99.90;;;;;;5087769;28;20209;-85
2023/02/12 04:58:21;;;;;;;17.40;6.70;;;6.30;99.90;;;;;;5088272;28;20202;-85
2023/02/12 05:00:48;;;;;;;16.40;7.57;;;;;;;;;;5087643;28;20322;-86
2023/02/12 05:03:15;;;;;;;16.98;6.95;;;6.50;99.90;;;;;;5092061;28;20198;-84
2023/02/12 05:05:43;;;;;;;17.38;7.05;;;6.40;99.90;;;;;;5097670;28;20266;-86
2023/02/12 05:08:10;;;;;;;19.50;7.07;;;6.20;99.90;;;;;;5090857;28;20270;-86
2023/02/12 05:10:37;;;;;;;23.67;7.28;;;6.40;99.90;;;;;;5090660;28;20328;-86
2023/02/12 05:13:04;;;;;;;16.52;6.97;;;;;;;;;;5093315;28;20242;-85
2023/02/12 05:15:31;;;;;;;20.23;7.15;;;6.30;99.90;;;;;;5092845;28;20596;-86
2023/02/12 05:17:58;;;;;;;29.60;8.10;;;6.30;99.90;;;;;;5088831;28;20222;-86
2023/02/12 05:20:24;;;;;;;12.13;7.30;;;6.90;99.90;;;;;;5096370;28;20537;-85
2023/02/12 05:22:53;;;;;;;28.05;7.80;;;6.60;99.90;;;;;;5100440;28;20187;-85
2023/02/12 05:25:20;;;;;;;16.63;6.00;;;6.40;99.90;;;;;;5099578;28;20257;-84
2023/02/12 05:27:47;;;;;;;18.65;7.53;;;;;;;;;;5095370;28;20266;-84
2023/02/12 05:30:14;;;;;;;13.45;6.05;;;6.90;99.90;;;;;;5087905;28;20233;-84
2023/02/12 05:32:43;;;;;;;14.40;6.80;;;6.40;99.90;;;;;;5087643;28;20261;-85
2023/02/12 05:35:09;;;;;;;14.77;5.63;;;6.60;99.90;;;;;;5087699;28;20249;-84
2023/02/12 05:37:37;;;;;;;19.90;6.97;;;;;;;;;;5086854;28;20230;-85
2023/02/12 05:40:07;;;;;;;11.48;5.55;;;6.70;99.90;;;;;;5093394;28;20230;-85
2023/02/12 05:42:34;;;;;;;18.60;7.70;;;;;;;;;;5099003;28;20187;-84
2023/02/12 05:45:01;;;;;;;41.00;7.25;;;6.40;99.90;;;;;;5084671;28;20266;-86
2023/02/12 05:47:28;;;;;;;13.55;5.95;;;6.90;99.90;;;;;;5084964;28;20202;-84
2023/02/12 05:49:55;;;;;;;15.27;6.00;;;6.80;99.90;;;;;;5089230;28;20299;-85
2023/02/12 05:52:22;;;;;;;13.43;6.32;;;6.20;99.90;;;;;;5090392;28;20237;-85
2023/02/12 05:54:50;;;;;;;25.15;7.78;;;6.40;99.90;;;;;;5092920;28;20207;-84
2023/02/12 05:57:18;;;;;;;19.10;6.75;;;6.70;99.90;;;;;;5090967;28;20218;-84
2023/02/12 05:59:45;;;;;;;17.67;6.15;;;;;;;;;;5093312;28;20254;-85
2023/02/12 06:02:12;;;;;;;16.05;6.30;;;6.50;99.90;;;;;;5095753;28;20251;-84
2023/02/12 06:04:38;;;;;;;16.03;6.87;;;6.90;99.90;;;;;;5096198;28;20214;-84
2023/02/12 06:07:06;;;;;;;21.48;6.63;;;6.60;99.90;;;;;;5094025;28;20445;-85
2023/02/12 06:09:33;;;;;;;12.85;5.82;;;6.40;99.90;;;;;;5086505;28;20202;-84
2023/02/12 06:12:00;;;;;;;21.33;6.57;;;6.90;99.90;;;;;;5086453;28;20202;-84
2023/02/12 06:14:28;;;;;;;22.52;6.97;;;7.00;99.90;;;;;;5085836;28;20272;-85
2023/02/12 06:16:55;;;;;;;19.67;6.93;;;6.80;99.90;;;;;;5084106;28;20205;-84
2023/02/12 06:19:23;;;;;;;16.15;6.55;;;6.50;99.90;;;;;;5079021;28;20214;-85
2023/02/12 06:21:50;;;;;;;19.30;7.18;;;;;;;;;;5078047;28;20251;-85
2023/02/12 06:24:17;;;;;;;10.70;5.70;;;6.90;99.90;;;;;;5080843;28;20219;-85
2023/02/12 06:26:45;;;;;;;22.20;8.20;;;;;;;;;;5080167;28;20234;-85
2023/02/12 06:29:13;;;;;;;24.88;9.63;;;6.80;99.90;;;;;;5081381;28;20236;-85
2023/02/12 06:31:41;;;;;;;15.98;7.85;;;6.50;99.90;;;;;;5087462;28;20222;-86
2023/02/12 06:34:10;;;;;;;22.20;11.00;;;6.70;99.90;;;;;;5084914;28;20221;-85
2023/02/12 06:36:38;;;;;;;31.83;11.07;;;6.70;99.00;;;;;;5081703;28;20224;-85
2023/02/12 06:39:05;;;;;;;15.75;8.73;;;6.40;99.90;;;;;;5087186;28;20276;-85
2023/02/12 06:41:33;;;;;;;31.98;10.40;;;6.60;99.90;;;;;;5086221;28;20272;-87
2023/02/12 06:44:00;;;;;;;20.50;10.02;;;6.60;99.90;;;;;;5083983;28;20213;-87
2023/02/12 06:46:27;;;;;;;11.90;8.15;;;;;;;;;;5083672;28;20248;-86
2023/02/12 06:48:57;;;;;;;19.53;7.73;;;7.00;99.90;;;;;;5085546;28;20210;-85
2023/02/12 06:51:25;;;;;;;14.75;7.57;;;6.70;99.90;;;;;;5084596;28;20448;-86
2023/02/12 06:53:54;;;;;;;16.65;7.75;;;6.90;99.90;;;;;;5084240;28;20226;-84
2023/02/12 06:56:23;;;;;;;19.45;6.85;;;7.00;99.90;;;;;;5093979;28;20233;-84
2023/02/12 06:58:53;;;;;;;18.60;6.13;;;6.70;99.90;;;;;;5096162;28;20217;-85
2023/02/12 07:01:22;;;;;;;12.45;5.82;;;6.90;99.90;;;;;;5094072;28;20227;-86
2023/02/12 07:03:51;;;;;;;15.18;6.32;;;6.80;99.90;;;;;;5086473;28;20198;-86
2023/02/12 07:06:20;;;;;;;14.02;6.43;;;6.90;99.90;;;;;;5095235;28;20258;-86
2023/02/12 07:08:47;;;;;;;16.77;5.40;;;6.80;95.00;;;;;;5097732;28;20222;-86
2023/02/12 07:11:14;;;;;;;16.83;7.50;;;6.40;99.90;;;;;;5097924;28;20238;-85
2023/02/12 07:13:42;;;;;;;13.93;5.68;;;6.60;99.90;;;;;;5097320;28;20692;-86
2023/02/12 07:16:11;;;;;;;15.65;5.40;;;6.80;99.90;;;;;;5086300;28;20203;-86
2023/02/12 07:18:39;;;;;;;10.85;5.05;;;6.80;1.00;;;;;;5084824;28;20200;-88
2023/02/12 07:21:07;;;;;;;16.42;5.93;;;7.10;65.50;;;;;;5084592;28;20787;-86
2023/02/12 07:23:36;;;;;;;16.40;5.25;;;6.70;20.00;;;;;;5083064;28;20226;-86
2023/02/12 07:26:05;;;;;;;18.77;5.68;;;7.00;1.00;;;;;;5083831;28;20270;-86
2023/02/12 07:28:33;;;;;;;14.82;6.75;;;6.80;56.50;;;;;;5085501;28;20293;-85
2023/02/12 07:31:00;;;;;;;10.38;5.38;;;7.10;7.30;;;;;;5078446;28;20233;-85
2023/02/12 07:33:27;;;;;;;17.60;6.38;;;6.80;38.30;;;;;;5082264;28;20727;-86
2023/02/12 07:35:53;;;;;;;13.88;5.53;;;6.90;45.80;;;;;;5083031;28;20206;-86
2023/02/12 07:38:20;;;;;;;11.70;5.43;;;6.90;1.00;;;;;;5083774;28;20212;-87
2023/02/12 07:40:48;;;;;;;15.90;6.88;;;7.10;1.00;;;;;;5084475;28;20616;-85
2023/02/12 07:43:15;;;;;;;16.90;6.22;;;;;;;;;;5084810;28;20696;-85
2023/02/12 07:45:42;;;;;;;15.07;6.30;;;7.30;1.00;;;;;;5083571;28;20297;-86
2023/02/12 07:48:09;;;;;;;13.27;5.97;;;6.80;1.00;;;;;;5083797;28;20230;-86
2023/02/12 07:50:36;;;;;;;16.50;6.70;;;6.90;1.00;;;;;;5083830;28;20218;-85
2023/02/12 07:53:03;;;;;;;17.70;6.10;;;6.30;1.00;;;;;;5086212;28;20919;-84
2023/02/12 07:55:30;;;;;;;18.00;6.33;;;7.00;1.00;;;;;;5091648;28;20527;-86
2023/02/12 07:57:58;;;;;;;26.13;8.30;;;6.90;11.80;;;;;;5085262;28;20445;-87
2023/02/12 08:00:25;;;;;;;14.52;6.88;;;7.10;15.50;;;;;;5086436;28;20688;-85
2023/02/12 08:02:52;;;;;;;27.60;9.30;;;7.10;1.00;;;;;;5086517;28;20269;-85
2023/02/12 08:05:19;;;;;;;25.55;7.15;;;6.80;1.00;;;;;;5085770;28;20202;-85
2023/02/12 08:07:46;;;;;;;18.07;8.70;;;6.70;1.00;;;;;;5085781;28;20687;-85
2023/02/12 08:10:13;;;;;;;14.23;6.40;;;6.50;1.00;;;;;;5085661;28;20784;-85
2023/02/12 08:12:40;;;;;;;16.83;7.03;;;;;;;;;;5085233;28;20473;-86
2023/02/12 08:15:10;;;;;;;22.17;6.67;;;7.50;13.30;;;;;;5086360;28;20527;-86
2023/02/12 08:17:37;;;;;;;13.25;7.07;;;;;;;;;;5086464;28;20468;-88
2023/02/12 08:20:05;;;;;;;18.63;5.67;;;7.00;3.10;;;;;;5084136;28;20302;-85
2023/02/12 08:22:32;;;;;;;15.93;6.37;;;;;;;;;;5084328;28;20523;-85
2023/02/12 08:24:59;;;;;;;18.08;4.80;;;6.90;1.00;;;;;;5084861;28;20527;-84
2023/02/12 08:27:26;;;;;;;17.57;6.27;;;7.30;1.00;;;;;;5085047;28;20276;-85
2023/02/12 08:29:52;;;;;;;13.38;6.45;;;7.40;1.00;;;;;;5084094;28;20435;-86
2023/02/12 08:32:20;;;;;;;11.03;5.27;;;6.90;1.00;;;;;;5097767;28;20254;-86
2023/02/12 08:34:48;;;;;;;16.23;5.13;;;;;;;;;;5087848;28;20507;-86
2023/02/12 08:37:14;;;;;;;14.60;7.60;;;7.20;1.00;;;;;;5086162;28;20898;-84
2023/02/12 08:39:41;;;;;;;14.90;5.23;;;7.10;1.00;;;;;;5086484;28;20504;-86
2023/02/12 08:42:08;;;;;;;19.60;6.90;;;;;;;;;;5117751;22;20548;-78
2023/02/12 08:44:35;;;;;;;15.47;5.70;;;7.60;1.00;;;;;;5097588;28;20411;-78
2023/02/12 08:47:02;;;;;;;15.17;6.30;;;7.60;1.00;;;;;;5097880;28;20919;-79
2023/02/12 08:49:31;;;;;;;16.03;5.90;;;7.30;1.00;;;;;;5097794;28;20447;-79
2023/02/12 08:52:00;;;;;;;16.10;7.03;;;7.60;1.00;;;;;;5097071;28;20469;-78
2023/02/12 08:54:30;;;;;;;14.02;5.65;;;7.10;1.00;;;;;;5097540;28;20459;-79
2023/02/12 08:56:59;;;;;;;19.30;8.30;;;7.70;1.00;;;;;;5097465;28;20205;-78
2023/02/12 08:59:26;;;;;;;11.60;7.60;;;7.40;1.00;;;;;;5097243;28;21016;-79
2023/02/12 09:01:53;;;;;;;13.00;7.40;;;7.30;1.00;;;;;;5097137;28;20435;-78
2023/02/12 09:04:24;;;;;;;17.57;5.87;;;7.40;1.00;;;;;;5098916;28;20809;-79
2023/02/12 09:06:52;;;;;;;10.37;4.90;;;8.70;1.00;;;;;;5097244;28;20395;-79
2023/02/12 09:09:19;;;;;;;15.40;5.30;;;7.40;1.00;;;;;;5097912;28;20546;-79
2023/02/12 09:11:46;;;;;;;13.33;5.50;;;7.60;1.00;;;;;;5098176;28;20434;-78
2023/02/12 09:14:15;;;;;;;13.63;5.90;;;7.60;1.00;;;;;;5096810;28;20473;-79
2023/02/12 09:16:42;;;;;;;16.83;7.60;;;7.60;99.90;;;;;;5096789;28;20502;-78
2023/02/12 09:19:12;;;;;;;13.07;5.87;;;7.30;1.00;;;;;;5096982;28;20424;-79
2023/02/12 09:21:39;;;;;;;19.00;7.27;;;7.90;1.00;;;;;;5096793;28;20437;-80
2023/02/12 09:24:07;;;;;;;12.50;5.27;;;7.50;99.90;;;;;;5096663;28;20419;-79
2023/02/12 09:26:34;;;;;;;15.17;5.90;;;7.20;1.00;;;;;;5098137;28;20424;-79
2023/02/12 09:29:03;;;;;;;10.80;5.40;;;7.30;1.00;;;;;;5101544;28;20981;-78
2023/02/12 09:31:32;;;;;;;12.23;6.90;;;7.20;1.00;;;;;;5098752;28;20975;-79
2023/02/12 09:34:00;;;;;;;9.37;4.97;;;7.60;1.00;;;;;;5096023;28;20554;-78
2023/02/12 09:36:27;;;;;;;21.83;6.60;;;7.50;1.00;;;;;;5095625;28;20426;-79
2023/02/12 09:38:55;;;;;;;14.77;5.80;;;7.40;1.00;;;;;;5096709;28;20448;-79
2023/02/12 09:41:47;;;;;;;15.73;5.83;;;7.40;1.00;;;;;;5097173;28;20480;-79
2023/02/12 09:44:20;;;;;;;15.33;7.00;;;8.20;1.00;;;;;;5098064;28;20492;-79
2023/02/12 09:46:51;;;;;;;18.07;7.40;;;8.00;1.00;;;;;;5097544;28;20416;-80
2023/02/12 09:49:30;;;;;;;10.80;7.00;;;8.30;1.00;;;;;;5098512;28;20826;-80
2023/02/12 09:51:58;;;;;;;14.93;5.80;;;8.30;1.00;;;;;;5098066;28;20487;-79
2023/02/12 09:54:33;;;;;;;20.60;7.20;;;8.10;1.00;;;;;;5098438;28;20482;-80
2023/02/12 09:57:04;;;;;;;14.27;6.87;;;8.80;1.00;;;;;;5099182;28;20748;-79
2023/02/12 09:59:44;;;;;;;12.77;5.37;;;8.00;1.00;;;;;;5099179;28;20442;-80
2023/02/12 10:02:14;;;;;;;12.20;6.40;;;8.60;1.00;;;;;;5096762;28;20476;-80
2023/02/12 10:04:42;;;;;;;16.67;6.27;;;8.80;1.00;;;;;;5098828;28;20445;-79
2023/02/12 10:07:21;;;;;;;12.67;5.97;;;8.40;1.00;;;;;;5096289;28;20867;-79
2023/02/12 10:10:06;;;;;;;15.73;6.73;;;8.10;99.90;;;;;;5095875;28;20446;-79
2023/02/12 10:12:39;;;;;;;16.57;5.83;;;7.90;1.00;;;;;;5096143;28;20472;-79
2023/02/12 10:15:20;;;;;;;9.90;6.33;;;8.10;1.00;;;;;;5095424;28;20443;-78
2023/02/12 10:17:56;;;;;;;14.27;7.17;;;8.10;1.00;;;;;;5096199;28;20481;-79
2023/02/12 10:20:48;;;;;;;14.20;6.70;;;8.30;1.00;;;;;;5096171;28;20409;-79
2023/02/12 10:23:28;;;;;;;17.73;8.70;;;8.40;1.00;;;;;;5096650;28;20502;-79
2023/02/12 10:25:57;;;;;;;18.60;7.57;;;8.30;1.00;;;;;;5096890;28;20455;-78
2023/02/12 10:28:30;;;;;;;12.10;6.43;;;8.10;1.00;;;;;;5094827;28;20462;-78
2023/02/12 10:30:59;;;;;;;17.20;7.50;;;8.50;1.00;;;;;;5094149;28;20494;-78
2023/02/12 10:33:29;;;;;;;18.77;7.03;;;8.10;1.00;;;;;;5093693;28;20453;-77
2023/02/12 10:36:02;;;;;;;17.10;6.87;;;8.00;1.00;;;;;;5093994;28;20824;-78
2023/02/12 10:38:32;;;;;;;12.37;6.00;;;8.10;1.00;;;;;;5097521;28;20418;-77
2023/02/12 10:41:00;;;;;;;20.57;6.40;;;8.30;1.00;;;;;;5099179;28;20510;-77
2023/02/12 10:43:30;;;;;;;13.93;6.57;;;8.70;1.00;;;;;;5097882;28;20822;-78
2023/02/12 10:45:57;;;;;;;18.20;6.77;;;8.10;1.00;;;;;;5096476;28;20509;-78
2023/02/12 10:48:30;;;;;;;20.13;6.70;;;8.60;1.00;;;;;;5098582;28;20901;-79
2023/02/12 10:51:12;;;;;;;18.33;8.70;;;8.60;1.00;;;;;;5097419;28;20476;-78
2023/02/12 10:53:41;;;;;;;9.73;6.10;;;8.20;1.00;;;;;;5097391;28;20518;-78
2023/02/12 10:56:20;;;;;;;16.00;7.53;;;8.30;1.00;;;;;;5096429;28;20478;-80
2023/02/12 10:58:56;;;;;;;11.80;5.83;;;8.10;1.00;;;;;;5097648;28;20409;-80
2023/02/12 11:01:27;;;;;;;17.87;6.37;;;8.50;1.00;;;;;;5095579;28;20850;-79
2023/02/12 11:03:54;;;;;;;18.70;6.37;;;8.60;1.00;;;;;;5094893;28;20432;-78
2023/02/12 11:06:25;;;;;;;16.33;7.47;;;8.10;1.00;;;;;;5097467;28;20514;-78
2023/02/12 11:08:52;;;;;;;9.80;5.83;;;8.10;1.00;;;;;;5097180;28;20434;-77
2023/02/12 11:11:24;;;;;;;13.80;5.93;;;8.10;1.00;;;;;;5096008;28;20880;-78
2023/02/12 11:13:58;;;;;;;11.00;6.00;;;7.60;44.40;;;;;;5095293;28;20414;-77
2023/02/12 11:16:30;;;;;;;15.63;6.77;;;8.00;1.00;;;;;;5095112;28;20428;-78
2023/02/12 11:19:03;;;;;;;17.57;6.63;;;8.30;55.40;;;;;;5096224;28;20447;-77
2023/02/12 11:21:31;;;;;;;11.70;6.60;;;7.80;85.70;;;;;;5094392;28;20510;-78
2023/02/12 11:23:58;;;;;;;15.27;6.80;;;;;;;;;;5093651;28;20448;-79
2023/02/12 11:26:28;;;;;;;16.30;7.50;;;8.20;99.90;;;;;;5095055;28;20450;-78
2023/02/12 11:28:58;;;;;;;14.30;7.97;;;8.00;1.00;;;;;;5096426;28;20530;-78
2023/02/12 11:31:26;;;;;;;21.33;8.13;;;7.80;71.80;;;;;;5094307;28;20483;-77
2023/02/12 11:34:14;;;;;;;17.23;7.63;;;8.10;1.00;;;;;;5093887;28;20444;-78
2023/02/12 11:36:44;;;;;;;10.87;6.57;;;8.00;46.40;;;;;;5094215;28;20395;-78
2023/02/12 11:39:20;;;;;;;14.70;7.60;;;7.90;70.60;;;;;;5093391;28;20452;-78
2023/02/12 11:41:53;;;;;;;17.77;6.07;;;7.80;52.90;;;;;;5093656;28;20904;-78
2023/02/12 11:44:24;;;;;;;16.30;8.87;;;8.40;98.70;;;;;;5094472;28;20965;-77
2023/02/12 11:46:54;;;;;;;21.77;9.27;;;8.50;64.30;;;;;;5095109;28;20425;-78
2023/02/12 11:49:25;;;;;;;15.87;8.10;;;8.60;55.60;;;;;;5094470;28;20913;-78
2023/02/12 11:51:53;;;;;;;14.60;7.83;;;8.40;30.50;;;;;;5094013;28;20427;-79
2023/02/12 11:54:25;;;;;;;12.30;7.40;;;8.50;1.00;;;;;;5094604;28;20429;-78
2023/02/12 11:56:54;;;;;;;13.00;8.10;;;8.40;6.60;;;;;;5094675;28;20848;-78
2023/02/12 11:59:35;;;;;;;11.60;7.17;;;8.70;28.00;;;;;;5093673;28;20451;-78
2023/02/12 12:02:16;;;;;;;10.70;6.03;;;8.30;1.00;;;;;;5093961;28;20467;-77
2023/02/12 12:04:46;;;;;;;15.87;6.70;;;8.40;1.00;;;;;;5094048;28;20442;-77
2023/02/12 12:07:20;;;;;;;11.33;7.33;;;8.20;1.00;;;;;;5095162;28;20462;-77
2023/02/12 12:09:53;;;;;;;9.83;7.10;;;8.20;1.00;;;;;;5096251;28;20426;-78
2023/02/12 12:12:24;;;;;;;18.40;8.73;;;8.20;1.00;;;;;;5095326;28;20450;-78
2023/02/12 12:20:35;;;;;;;14.00;7.80;;;8.50;1.00;;;;;;5098296;28;20378;-76
2023/02/12 12:23:08;;;;;;;13.90;8.33;;;7.90;1.00;;;;;;5097182;28;20446;-78
2023/02/12 12:25:41;;;;;;;11.53;7.87;;;8.10;1.00;;;;;;5094145;28;20428;-78
2023/02/12 12:28:23;;;;;;;9.93;6.60;;;7.90;1.00;;;;;;5095143;28;20423;-78
2023/02/12 12:31:02;;;;;;;11.40;6.10;;;8.10;1.00;;;;;;5093499;28;20471;-78
2023/02/12 12:33:41;;;;;;;14.33;7.80;;;10.80;1.00;;;;;;5093769;28;20459;-78
2023/02/12 12:36:45;;;;;;;11.10;6.83;;;8.70;1.00;;;;;;5095063;28;20510;-78
2023/02/12 12:39:23;;;;;;;15.93;8.40;;;8.20;1.00;;;;;;5098030;28;20422;-78
2023/02/12 12:42:34;;;;;;;11.20;6.93;;;8.10;1.00;;;;;;5097776;28;21023;-78
2023/02/12 12:45:19;;;;;;;12.10;7.77;;;8.20;1.00;;;;;;5067063;28;20426;-78
2023/02/12 12:48:00;;;;;;;13.57;7.80;;;8.30;1.00;;;;;;5097809;28;20399;-77
2023/02/12 12:50:44;;;;;;;13.67;8.83;;;8.30;1.00;;;;;;5097814;28;20893;-78
2023/02/12 12:53:31;;;;;;;18.73;10.00;;;8.10;1.00;;;;;;5098477;28;21020;-78
2023/02/12 12:56:23;;;;;;;16.27;10.20;;;8.10;1.00;;;;;;5098196;28;20833;-78
2023/02/12 12:59:04;;;;;;;18.13;8.87;;;7.70;1.00;;;;;;5070895;28;20424;-78
2023/02/12 13:02:16;;;;;;;13.83;10.10;;;7.90;1.00;;;;;;5098500;28;20447;-77
2023/02/12 13:05:01;;;;;;;18.10;9.43;;;8.20;1.00;;;;;;5069074;28;20537;-78
2023/02/12 13:07:42;;;;;;;13.57;8.37;;;7.70;1.00;;;;;;5096964;28;20933;-78
2023/02/12 13:10:24;;;;;;;16.73;8.70;;;7.30;1.00;;;;;;5096159;28;20407;-78
2023/02/12 13:13:03;;;;;;;13.90;8.37;;;8.50;1.00;;;;;;5096477;28;20962;-78
2023/02/12 13:15:37;;;;;;;13.07;8.90;;;8.30;1.00;;;;;;5096563;28;20445;-78
2023/02/12 13:18:13;;;;;;;21.03;9.47;;;8.00;1.00;;;;;;5097139;28;20435;-77
2023/02/12 13:20:49;;;;;;;34.50;17.90;;;8.50;1.00;;;;;;5097819;28;20471;-77
2023/02/12 13:23:19;;;;;;;18.70;8.00;;;8.60;1.00;;;;;;5096765;28;20443;-78
2023/02/12 13:25:56;;;;;;;15.97;9.13;;;8.70;1.00;;;;;;5095968;28;20466;-78
2023/02/12 13:28:31;;;;;;;15.07;9.53;;;9.00;1.00;;;;;;5101573;28;20411;-78